Time;durP1;ratioP1;P1;durP2;ratioP2;P2;SDS_P1;SDS_P2;PMS_P1;PMS_P2;Temp;Humidity;BMP_temperature;BMP_pressure;BME280_temperature;BME280_humidity;BME280_pressure;Samples;Min_cycle;Max_cycle;Signal;HPM_P1;HPM_P2
2024/03/18 00:01:06;;;;;;;4.93;2.40;;;1.40;1.00;;;;;;4454208;27;655168;-69
2024/03/18 00:03:53;;;;;;;9.23;2.97;;;1.50;1.00;;;;;;4460696;27;654633;-69
2024/03/18 00:06:40;;;;;;;6.03;2.50;;;1.50;1.00;;;;;;4480487;27;655032;-69
2024/03/18 00:09:27;;;;;;;5.57;2.40;;;1.50;1.00;;;;;;4458808;27;654690;-69
2024/03/18 00:12:15;;;;;;;4.70;2.70;;;1.40;1.00;;;;;;4479271;27;654573;-69
2024/03/18 00:15:02;;;;;;;4.97;2.93;;;1.40;1.00;;;;;;4482683;27;654575;-69
2024/03/18 00:17:51;;;;;;;6.27;2.90;;;1.20;1.00;;;;;;4458178;27;654621;-69
2024/03/18 00:20:38;;;;;;;5.87;3.30;;;1.30;1.00;;;;;;4458613;27;655081;-69
2024/03/18 00:23:26;;;;;;;7.65;3.42;;;1.20;1.00;;;;;;4476712;27;654703;-69
2024/03/18 00:26:13;;;;;;;5.27;3.07;;;1.20;1.00;;;;;;4459036;27;654507;-69
2024/03/18 00:29:00;;;;;;;4.77;3.17;;;1.30;1.00;;;;;;4470195;27;654923;-69
2024/03/18 00:31:48;;;;;;;6.53;2.63;;;1.20;1.00;;;;;;4464415;27;654642;-70
2024/03/18 00:34:36;;;;;;;7.77;2.83;;;1.30;1.00;;;;;;4470202;27;655774;-69
2024/03/18 00:37:24;;;;;;;4.67;2.53;;;1.20;48.50;;;;;;4456300;27;655341;-69
2024/03/18 00:40:11;;;;;;;7.40;2.70;;;1.20;2.20;;;;;;4474128;27;656686;-69
2024/03/18 00:42:57;;;;;;;5.30;2.63;;;1.20;1.00;;;;;;4460046;27;654490;-69
2024/03/18 00:45:45;;;;;;;6.03;2.60;;;1.20;22.50;;;;;;4475754;27;655704;-69
2024/03/18 00:48:32;;;;;;;10.37;3.13;;;1.20;95.20;;;;;;4479022;27;655666;-69
2024/03/18 00:51:21;;;;;;;6.10;2.53;;;1.20;1.00;;;;;;4478684;27;657311;-69
2024/03/18 00:54:09;;;;;;;5.17;2.50;;;1.10;1.00;;;;;;4460116;27;655373;-69
2024/03/18 00:56:57;;;;;;;5.27;2.43;;;1.10;48.60;;;;;;4471129;27;654914;-69
2024/03/18 00:59:44;;;;;;;4.53;2.10;;;1.10;32.30;;;;;;4456687;27;656194;-69
2024/03/18 01:02:31;;;;;;;4.33;2.17;;;1.00;1.00;;;;;;4474805;27;656020;-69
2024/03/18 01:05:19;;;;;;;3.83;2.40;;;1.10;1.00;;;;;;4453924;27;654873;-69
2024/03/18 01:08:07;;;;;;;4.63;2.10;;;1.10;9.00;;;;;;4473528;27;654817;-69
2024/03/18 01:10:55;;;;;;;5.33;2.20;;;1.10;98.20;;;;;;4441893;27;654765;-69
2024/03/18 01:13:47;;;;;;;7.73;2.20;;;1.20;21.20;;;;;;4471786;28;655731;-69
2024/03/18 01:16:34;;;;;;;2.93;1.50;;;1.10;67.40;;;;;;4459407;28;656226;-69
2024/03/18 01:19:21;;;;;;;6.27;2.37;;;1.10;74.60;;;;;;4481404;27;655614;-68
2024/03/18 01:22:08;;;;;;;4.60;2.43;;;1.00;48.80;;;;;;4451124;28;655854;-69
2024/03/18 01:24:59;;;;;;;3.70;1.73;;;0.90;99.90;;;;;;4476319;28;656865;-69
2024/03/18 01:27:47;;;;;;;4.73;2.20;;;1.00;96.40;;;;;;4460176;28;656757;-69
2024/03/18 01:30:35;;;;;;;6.60;2.43;;;1.00;99.90;;;;;;4451974;27;657953;-69
2024/03/18 01:33:22;;;;;;;4.23;2.13;;;1.00;99.90;;;;;;4476453;28;655708;-69
2024/03/18 01:36:09;;;;;;;6.17;2.20;;;1.00;99.90;;;;;;4441500;28;657162;-69
2024/03/18 01:38:56;;;;;;;3.83;1.50;;;1.00;99.90;;;;;;4478566;27;655588;-69
2024/03/18 01:41:45;;;;;;;6.17;2.53;;;1.00;93.30;;;;;;4454990;28;655434;-69
2024/03/18 01:44:32;;;;;;;6.87;2.47;;;1.00;99.90;;;;;;4468344;28;655628;-69
2024/03/18 01:47:20;;;;;;;7.33;2.10;;;1.00;99.90;;;;;;4480747;28;655553;-69
2024/03/18 01:50:09;;;;;;;5.50;2.60;;;1.10;99.90;;;;;;4454792;28;655604;-69
2024/03/18 01:52:56;;;;;;;6.10;2.50;;;1.00;99.90;;;;;;4478230;28;656139;-69
2024/03/18 01:55:44;;;;;;;5.47;2.20;;;0.90;99.90;;;;;;4453106;28;655740;-69
2024/03/18 01:58:33;;;;;;;5.93;3.10;;;1.00;99.90;;;;;;4477769;28;656275;-69
2024/03/18 02:01:20;;;;;;;10.00;4.03;;;0.90;99.90;;;;;;4452229;28;656250;-69
2024/03/18 02:04:09;;;;;;;8.33;4.13;;;0.90;99.90;;;;;;4471836;27;656103;-69
2024/03/18 02:06:56;;;;;;;8.23;3.97;;;0.90;99.90;;;;;;4469443;28;655199;-69
2024/03/18 02:09:44;;;;;;;7.27;3.93;;;0.90;99.90;;;;;;4454545;28;656028;-69
2024/03/18 02:12:32;;;;;;;11.10;4.33;;;1.00;99.90;;;;;;4473724;28;656259;-69
2024/03/18 02:15:22;;;;;;;10.43;5.03;;;1.10;99.90;;;;;;4450154;27;657614;-69
2024/03/18 02:18:09;;;;;;;11.70;4.57;;;1.00;99.90;;;;;;4457874;27;657195;-69
2024/03/18 02:20:57;;;;;;;8.23;4.37;;;0.80;99.90;;;;;;4481776;27;657029;-69
2024/03/18 02:23:46;;;;;;;8.07;4.40;;;0.80;99.90;;;;;;4454885;27;656288;-69
2024/03/18 02:26:33;;;;;;;10.83;4.40;;;0.80;99.90;;;;;;4447126;27;655509;-69
2024/03/18 02:29:20;;;;;;;7.03;4.03;;;0.80;99.90;;;;;;4473823;27;657699;-69
2024/03/18 02:32:08;;;;;;;10.20;3.90;;;0.80;99.90;;;;;;4465139;27;655146;-69
2024/03/18 02:34:55;;;;;;;7.37;4.23;;;0.70;99.90;;;;;;4478216;27;656838;-69
2024/03/18 02:37:43;;;;;;;8.00;4.00;;;0.80;99.90;;;;;;4468246;27;655900;-69
2024/03/18 02:40:31;;;;;;;8.13;3.57;;;0.80;99.90;;;;;;4476477;27;656683;-69
2024/03/18 02:43:19;;;;;;;6.57;2.40;;;0.80;99.90;;;;;;4453338;27;655707;-69
2024/03/18 02:46:07;;;;;;;5.70;2.70;;;0.90;99.90;;;;;;4472533;27;655788;-69
2024/03/18 02:48:54;;;;;;;7.03;3.30;;;0.90;99.90;;;;;;4464077;27;655866;-69
2024/03/18 02:51:41;;;;;;;5.10;2.80;;;0.90;99.90;;;;;;4475584;27;657343;-68
2024/03/18 02:54:28;;;;;;;6.50;2.80;;;0.80;99.90;;;;;;4458419;27;655686;-69
2024/03/18 02:57:17;;;;;;;4.63;1.77;;;0.60;1.00;;;;;;4476359;27;656226;-68
2024/03/18 03:00:06;;;;;;;4.27;2.10;;;0.40;1.00;;;;;;4460350;27;655255;-69
2024/03/18 03:02:53;;;;;;;2.37;1.53;;;0.30;1.00;;;;;;4459890;27;654423;-70
2024/03/18 03:05:40;;;;;;;3.20;2.13;;;0.30;8.60;;;;;;4469562;27;655625;-69
2024/03/18 03:08:27;;;;;;;3.07;2.00;;;0.20;1.00;;;;;;4465038;27;655505;-69
2024/03/18 03:11:15;;;;;;;4.10;2.07;;;0.10;1.00;;;;;;4486151;27;654547;-69
2024/03/18 03:14:04;;;;;;;3.63;1.73;;;0.00;1.00;;;;;;4477260;27;654419;-69
2024/03/18 03:16:51;;;;;;;3.10;1.90;;;0.00;1.00;;;;;;4472614;27;654340;-68
2024/03/18 03:19:38;;;;;;;1.73;1.20;;;0.00;1.00;;;;;;4454428;27;654474;-69
2024/03/18 03:22:25;;;;;;;5.53;1.85;;;0.00;1.00;;;;;;4468162;27;655180;-69
2024/03/18 03:25:13;;;;;;;2.97;1.80;;;-0.20;1.00;;;;;;4459812;27;654853;-69
2024/03/18 03:28:01;;;;;;;5.40;1.83;;;-0.10;1.00;;;;;;4479088;27;655914;-69
2024/03/18 03:30:49;;;;;;;7.03;2.30;;;-0.20;1.00;;;;;;4456040;27;656404;-69
2024/03/18 03:33:38;;;;;;;2.00;1.13;;;-0.20;13.60;;;;;;4486650;27;656042;-69
2024/03/18 03:36:25;;;;;;;2.07;1.20;;;-0.20;1.00;;;;;;4450278;27;657469;-69
2024/03/18 03:39:13;;;;;;;3.53;1.87;;;-0.30;44.40;;;;;;4456672;27;655378;-69
2024/03/18 03:42:00;;;;;;;2.07;1.07;;;-0.30;99.90;;;;;;4470383;27;656232;-69
2024/03/18 03:44:47;;;;;;;4.55;2.40;;;-0.40;99.90;;;;;;4455593;27;656307;-70
2024/03/18 03:47:36;;;;;;;3.50;2.50;;;-0.30;99.90;;;;;;4474035;27;657154;-70
2024/03/18 03:50:23;;;;;;;10.17;2.50;;;-0.40;99.90;;;;;;4450529;27;656730;-69
2024/03/18 03:53:10;;;;;;;3.67;2.03;;;-0.30;99.90;;;;;;4471624;27;658050;-69
2024/03/18 03:55:58;;;;;;;6.47;2.63;;;-0.40;99.90;;;;;;4456472;27;656651;-69
2024/03/18 03:58:48;;;;;;;7.30;3.10;;;-0.40;99.90;;;;;;4473063;27;657163;-69
2024/03/18 04:01:35;;;;;;;5.03;2.97;;;-0.40;99.90;;;;;;4455659;27;657217;-69
2024/03/18 04:04:24;;;;;;;3.83;1.92;;;-0.40;99.90;;;;;;4452466;27;656571;-69
2024/03/18 04:07:13;;;;;;;4.90;2.60;;;-0.40;1.00;;;;;;4467527;27;656110;-69
2024/03/18 04:10:00;;;;;;;4.17;2.70;;;-0.50;1.00;;;;;;4451146;27;656000;-69
2024/03/18 04:12:48;;;;;;;9.77;3.60;;;-0.40;99.90;;;;;;4470506;27;655760;-69
2024/03/18 04:15:35;;;;;;;4.33;2.90;;;-0.40;99.90;;;;;;4481884;27;656993;-69
2024/03/18 04:18:22;;;;;;;7.43;3.70;;;-0.40;99.90;;;;;;4455661;27;656579;-69
2024/03/18 04:21:12;;;;;;;7.30;4.20;;;-0.40;99.90;;;;;;4475451;27;657123;-69
2024/03/18 04:24:02;;;;;;;8.93;3.83;;;-0.30;99.90;;;;;;4443712;27;656628;-69
2024/03/18 04:26:49;;;;;;;8.67;3.97;;;-0.30;1.00;;;;;;4450715;27;657706;-69
2024/03/18 04:29:36;;;;;;;10.83;4.03;;;-0.40;1.00;;;;;;4473878;27;655426;-69
2024/03/18 04:32:24;;;;;;;7.93;3.87;;;-0.40;1.00;;;;;;4448598;27;656282;-69
2024/03/18 04:35:11;;;;;;;3.13;2.10;;;-0.30;99.90;;;;;;4477167;27;656240;-69
2024/03/18 04:38:00;;;;;;;7.83;4.20;;;-0.30;1.00;;;;;;4457540;27;656380;-69
2024/03/18 04:40:47;;;;;;;10.10;4.60;;;-0.30;1.00;;;;;;4465076;27;655320;-70
2024/03/18 04:43:35;;;;;;;5.17;2.60;;;-0.40;1.00;;;;;;4477383;27;657099;-69
2024/03/18 04:46:22;;;;;;;7.73;4.43;;;-0.30;1.00;;;;;;4483038;27;655593;-69
2024/03/18 04:49:09;;;;;;;11.97;4.03;;;-0.30;1.00;;;;;;4449351;27;655714;-69
2024/03/18 04:51:56;;;;;;;9.23;4.87;;;-0.30;1.00;;;;;;4474039;27;657115;-69
2024/03/18 04:54:45;;;;;;;7.80;4.30;;;-0.30;1.00;;;;;;4456272;27;655957;-69
2024/03/18 04:57:33;;;;;;;8.37;4.03;;;-0.40;1.00;;;;;;4456462;27;655780;-69
2024/03/18 05:00:20;;;;;;;10.57;4.90;;;-0.30;99.90;;;;;;4474921;27;656337;-69
2024/03/18 05:03:08;;;;;;;7.73;4.30;;;-0.40;1.00;;;;;;4447713;27;657657;-69
2024/03/18 05:05:55;;;;;;;8.40;4.47;;;-0.40;99.90;;;;;;4465345;27;656887;-69
2024/03/18 05:08:42;;;;;;;9.90;4.87;;;-0.40;99.90;;;;;;4449357;28;656977;-69
2024/03/18 05:11:31;;;;;;;11.17;5.73;;;-0.50;1.00;;;;;;4460790;27;657354;-69
2024/03/18 05:14:18;;;;;;;10.30;5.37;;;-0.50;1.00;;;;;;4439486;27;656870;-69
2024/03/18 05:17:05;;;;;;;9.77;5.40;;;-0.50;1.00;;;;;;4453353;27;656780;-69
2024/03/18 05:19:53;;;;;;;13.43;5.90;;;-0.40;1.00;;;;;;4448125;28;656167;-69
2024/03/18 05:22:40;;;;;;;10.87;6.07;;;-0.30;1.00;;;;;;4459310;28;657107;-69
2024/03/18 05:25:28;;;;;;;11.63;6.33;;;-0.30;1.00;;;;;;4436863;28;656998;-69
2024/03/18 05:28:16;;;;;;;13.63;7.03;;;-0.20;99.90;;;;;;4456425;28;656911;-69
2024/03/18 05:31:04;;;;;;;14.40;7.30;;;-0.10;1.00;;;;;;4442648;28;657806;-69
2024/03/18 05:33:51;;;;;;;13.00;6.60;;;-0.20;99.90;;;;;;4467699;28;656893;-69
2024/03/18 05:36:38;;;;;;;10.27;4.70;;;-0.20;99.90;;;;;;4433871;28;658479;-69
2024/03/18 05:39:26;;;;;;;9.03;5.43;;;-0.20;99.90;;;;;;4454940;28;658039;-69
2024/03/18 05:42:13;;;;;;;12.33;5.87;;;-0.20;99.90;;;;;;4440145;28;656401;-69
2024/03/18 05:45:01;;;;;;;7.67;3.80;;;-0.10;99.90;;;;;;4466357;28;658199;-70
2024/03/18 05:47:49;;;;;;;10.00;3.90;;;-0.10;99.90;;;;;;4435828;27;656492;-69
2024/03/18 05:50:36;;;;;;;7.10;3.03;;;-0.10;1.00;;;;;;4462353;27;658260;-69
2024/03/18 05:53:23;;;;;;;7.60;3.20;;;-0.20;1.00;;;;;;4448552;27;655601;-70
2024/03/18 05:56:11;;;;;;;4.10;2.40;;;-0.20;1.00;;;;;;4462987;27;655850;-69
2024/03/18 05:58:58;;;;;;;3.97;2.00;;;0.00;1.00;;;;;;4448605;27;655335;-69
2024/03/18 06:01:47;;;;;;;6.07;2.03;;;0.10;1.00;;;;;;4477563;27;654653;-69
2024/03/18 06:04:36;;;;;;;3.73;2.17;;;0.20;1.00;;;;;;4448144;27;655011;-69
2024/03/18 06:07:23;;;;;;;4.87;2.47;;;0.30;1.00;;;;;;4452915;27;654767;-69
2024/03/18 06:10:11;;;;;;;4.60;2.67;;;0.40;99.90;;;;;;4466131;27;655437;-69
2024/03/18 06:12:58;;;;;;;5.80;2.80;;;0.40;99.90;;;;;;4439641;27;656016;-69
2024/03/18 06:15:46;;;;;;;5.97;2.50;;;0.30;99.90;;;;;;4455843;27;655829;-69
2024/03/18 06:18:36;;;;;;;3.43;2.00;;;0.20;99.90;;;;;;4440772;27;655990;-69
2024/03/18 06:21:28;;;;;;;5.47;2.83;;;0.10;99.90;;;;;;4434633;27;656100;-71
2024/03/18 06:24:20;;;;;;;5.63;3.00;;;-0.20;1.00;;;;;;4439647;28;655645;-69
2024/03/18 06:27:06;;;;;;;6.15;2.85;;;-0.20;1.00;;;;;;4434673;27;656211;-69
2024/03/18 06:29:54;;;;;;;8.07;2.47;;;-0.30;1.00;;;;;;4462296;27;656090;-69
2024/03/18 06:32:41;;;;;;;5.13;2.80;;;-0.10;1.00;;;;;;4458376;27;657850;-69
2024/03/18 06:35:29;;;;;;;6.77;2.77;;;-0.10;1.00;;;;;;4446631;27;655943;-70
2024/03/18 06:38:17;;;;;;;6.00;2.17;;;0.00;99.90;;;;;;4452902;27;655516;-69
2024/03/18 06:41:04;;;;;;;5.97;2.60;;;0.10;99.90;;;;;;4437421;27;655390;-69
2024/03/18 06:43:51;;;;;;;2.97;1.13;;;-0.10;99.90;;;;;;4455258;27;655376;-69
2024/03/18 06:46:39;;;;;;;6.90;3.10;;;0.00;99.90;;;;;;4440118;27;656779;-69
2024/03/18 06:49:26;;;;;;;8.67;3.13;;;0.10;99.90;;;;;;4458489;28;655734;-69
2024/03/18 06:52:15;;;;;;;4.77;2.30;;;0.40;99.90;;;;;;4437962;27;656239;-69
2024/03/18 06:55:03;;;;;;;9.23;2.90;;;0.50;99.90;;;;;;4453534;28;655958;-69
2024/03/18 06:57:50;;;;;;;6.63;2.73;;;0.70;99.90;;;;;;4456941;28;656071;-69
2024/03/18 07:00:38;;;;;;;4.93;2.37;;;0.60;99.90;;;;;;4434042;28;655886;-69
2024/03/18 07:03:25;;;;;;;2.03;1.37;;;0.40;99.90;;;;;;4450973;27;656073;-69
2024/03/18 07:06:12;;;;;;;4.70;2.37;;;0.30;99.90;;;;;;4441513;28;654892;-69
2024/03/18 07:09:02;;;;;;;5.00;2.30;;;0.10;99.90;;;;;;4465261;28;656356;-69
2024/03/18 07:11:49;;;;;;;6.90;1.80;;;0.10;99.90;;;;;;4442839;28;656009;-69
2024/03/18 07:14:37;;;;;;;3.97;1.93;;;0.20;99.90;;;;;;4452977;28;655967;-69
2024/03/18 07:17:24;;;;;;;4.70;1.90;;;0.30;99.90;;;;;;4442608;28;655930;-69
2024/03/18 07:20:11;;;;;;;3.60;2.07;;;0.60;99.90;;;;;;4460337;27;655581;-69
2024/03/18 07:22:58;;;;;;;3.03;1.70;;;0.60;39.70;;;;;;4444812;28;655863;-69
2024/03/18 07:25:47;;;;;;;5.80;2.00;;;0.80;1.00;;;;;;4467377;28;655373;-69
2024/03/18 07:28:34;;;;;;;3.20;1.60;;;0.60;99.90;;;;;;4428820;28;655482;-70
2024/03/18 07:31:21;;;;;;;2.15;1.40;;;0.80;1.00;;;;;;4457464;28;656010;-69
2024/03/18 07:34:09;;;;;;;3.70;1.80;;;1.20;1.00;;;;;;4442743;27;654414;-69
2024/03/18 07:36:56;;;;;;;2.80;1.60;;;1.70;1.00;;;;;;4464463;28;655315;-70
2024/03/18 07:39:44;;;;;;;2.42;1.42;;;1.90;1.00;;;;;;4433443;28;655340;-69
2024/03/18 07:42:32;;;;;;;3.20;2.17;;;1.90;1.00;;;;;;4456141;28;654824;-70
2024/03/18 07:45:20;;;;;;;3.60;1.80;;;2.10;35.70;;;;;;4439627;28;654177;-69
2024/03/18 07:48:08;;;;;;;4.77;1.90;;;1.80;1.00;;;;;;4455441;27;655206;-69
2024/03/18 07:50:55;;;;;;;2.93;1.67;;;1.90;1.00;;;;;;4459261;28;655048;-69
2024/03/18 07:53:43;;;;;;;5.50;1.60;;;2.00;1.00;;;;;;4435791;28;654874;-70
2024/03/18 07:56:31;;;;;;;3.50;1.50;;;2.50;1.00;;;;;;4456138;28;654986;-70
2024/03/18 07:59:19;;;;;;;3.60;1.50;;;2.40;1.00;;;;;;4442431;28;655663;-70
2024/03/18 08:02:07;;;;;;;3.63;1.93;;;2.60;1.00;;;;;;4468302;28;654149;-70
2024/03/18 08:04:54;;;;;;;3.30;1.83;;;2.60;1.00;;;;;;4440819;28;655059;-69
2024/03/18 08:07:41;;;;;;;6.90;1.83;;;3.00;1.00;;;;;;4468739;28;654481;-69
2024/03/18 08:10:28;;;;;;;5.30;1.77;;;2.80;1.00;;;;;;4441849;28;654663;-69
2024/03/18 08:13:15;;;;;;;7.23;2.47;;;2.60;1.00;;;;;;4459610;28;655266;-69
2024/03/18 08:16:05;;;;;;;5.07;1.70;;;2.00;1.00;;;;;;4436377;28;654217;-69
2024/03/18 08:18:52;;;;;;;2.87;1.60;;;1.80;1.00;;;;;;4463585;28;654204;-69
2024/03/18 08:21:39;;;;;;;1.93;1.07;;;2.20;1.00;;;;;;4432845;28;654638;-69
2024/03/18 08:24:26;;;;;;;3.77;1.60;;;2.50;1.00;;;;;;4452160;28;654314;-69
2024/03/18 08:27:13;;;;;;;3.73;1.80;;;2.30;1.00;;;;;;4437382;28;654670;-70
2024/03/18 08:30:00;;;;;;;2.20;1.45;;;2.20;1.00;;;;;;4461177;28;654562;-70
2024/03/18 08:32:49;;;;;;;3.57;2.00;;;2.10;1.00;;;;;;4438540;28;654361;-69
2024/03/18 08:35:37;;;;;;;4.60;1.93;;;2.00;1.00;;;;;;4458800;28;654928;-69
2024/03/18 08:38:24;;;;;;;4.57;2.17;;;1.80;1.00;;;;;;4441519;28;654544;-69
2024/03/18 08:41:11;;;;;;;4.57;2.33;;;1.60;1.00;;;;;;4461730;28;654639;-69
2024/03/18 08:43:59;;;;;;;4.33;1.73;;;1.70;1.00;;;;;;4429176;28;655134;-69
2024/03/18 08:46:46;;;;;;;6.33;3.03;;;1.60;1.00;;;;;;4457061;28;654622;-68
2024/03/18 08:49:34;;;;;;;5.47;2.67;;;1.60;1.00;;;;;;4437659;28;654911;-69
2024/03/18 08:52:21;;;;;;;6.20;2.73;;;1.40;1.00;;;;;;4453333;28;654822;-69
2024/03/18 08:55:10;;;;;;;5.27;2.03;;;1.60;1.00;;;;;;4440204;28;654737;-69
2024/03/18 08:57:57;;;;;;;8.70;3.60;;;1.00;1.00;;;;;;4431923;28;654464;-69
2024/03/18 09:00:45;;;;;;;7.73;3.90;;;0.80;7.20;;;;;;4465440;28;654372;-69
2024/03/18 09:03:33;;;;;;;9.33;5.10;;;1.10;99.90;;;;;;4465152;27;654610;-69
2024/03/18 09:06:21;;;;;;;7.80;4.50;;;0.90;20.10;;;;;;4479470;27;656614;-69
2024/03/18 09:09:11;;;;;;;2.90;1.67;;;0.90;99.90;;;;;;4459551;27;655523;-69
2024/03/18 09:12:00;;;;;;;9.00;4.40;;;1.10;99.90;;;;;;4455641;27;655999;-69
2024/03/18 09:14:47;;;;;;;7.43;3.80;;;1.00;99.90;;;;;;4452218;27;655735;-70
2024/03/18 09:17:35;;;;;;;7.53;4.10;;;1.00;91.50;;;;;;4477768;27;655688;-69
2024/03/18 09:20:23;;;;;;;7.53;4.07;;;1.30;99.90;;;;;;4460013;28;655873;-70
2024/03/18 09:23:11;;;;;;;8.97;4.83;;;1.60;99.90;;;;;;4483365;27;655882;-69
2024/03/18 09:25:58;;;;;;;11.50;5.07;;;1.70;99.90;;;;;;4449751;28;655777;-69
2024/03/18 09:28:45;;;;;;;14.53;5.10;;;2.10;99.90;;;;;;4475922;28;656596;-70
2024/03/18 09:31:33;;;;;;;16.20;6.30;;;2.60;17.10;;;;;;4450039;28;656873;-69
2024/03/18 09:34:20;;;;;;;13.10;6.73;;;2.10;1.00;;;;;;4462620;28;658233;-69
2024/03/18 09:37:07;;;;;;;13.63;5.83;;;1.70;57.50;;;;;;4468454;28;655530;-70
2024/03/18 09:39:56;;;;;;;10.00;5.73;;;1.80;99.90;;;;;;4484728;27;656744;-69
2024/03/18 09:42:43;;;;;;;10.23;5.30;;;1.60;12.10;;;;;;4455868;28;656371;-69
2024/03/18 09:45:31;;;;;;;11.43;5.17;;;1.80;28.10;;;;;;4469275;28;657292;-69
2024/03/18 09:48:18;;;;;;;12.67;7.07;;;1.80;15.80;;;;;;4439722;28;656633;-69
2024/03/18 09:51:05;;;;;;;11.10;6.43;;;1.30;97.50;;;;;;4472931;28;656670;-70
2024/03/18 09:53:52;;;;;;;11.53;5.37;;;1.20;19.50;;;;;;4455258;28;656967;-70
2024/03/18 09:56:41;;;;;;;9.97;5.33;;;1.60;62.40;;;;;;4473831;28;657226;-69
2024/03/18 09:59:28;;;;;;;10.65;5.78;;;1.80;1.00;;;;;;4458610;28;656091;-69
2024/03/18 10:02:16;;;;;;;9.43;4.57;;;1.70;1.00;;;;;;4470398;27;656826;-69
2024/03/18 10:05:09;;;;;;;8.70;4.63;;;2.10;1.00;;;;;;4451157;28;654992;-69
2024/03/18 10:07:56;;;;;;;19.73;7.10;;;1.90;1.00;;;;;;4441900;28;654698;-69
2024/03/18 10:10:45;;;;;;;13.55;7.10;;;1.70;1.00;;;;;;4441045;28;655944;-69
2024/03/18 10:13:34;;;;;;;16.10;7.67;;;2.50;1.00;;;;;;4468801;28;655658;-69
2024/03/18 10:16:23;;;;;;;14.17;7.40;;;2.80;1.00;;;;;;4472140;28;655497;-69
2024/03/18 10:19:13;;;;;;;11.40;6.05;;;3.00;1.00;;;;;;4442282;28;656415;-69
2024/03/18 10:22:00;;;;;;;4.93;3.30;;;3.40;1.00;;;;;;4438695;28;656127;-69
2024/03/18 10:24:47;;;;;;;9.97;3.83;;;2.90;1.00;;;;;;4465866;28;654631;-69
2024/03/18 10:27:36;;;;;;;13.50;7.30;;;3.20;1.00;;;;;;4483740;27;654287;-69
2024/03/18 10:30:24;;;;;;;15.23;7.60;;;3.20;1.00;;;;;;4454837;27;656023;-70
2024/03/18 10:33:12;;;;;;;14.70;5.90;;;2.20;1.00;;;;;;4464476;28;656363;-69
2024/03/18 10:35:59;;;;;;;16.97;8.30;;;2.00;1.00;;;;;;4447254;27;655773;-69
2024/03/18 10:38:46;;;;;;;16.37;8.17;;;2.20;1.00;;;;;;4479075;27;655912;-69
2024/03/18 10:41:36;;;;;;;18.37;8.03;;;2.30;1.00;;;;;;4445896;27;655568;-70
2024/03/18 10:44:23;;;;;;;17.73;8.37;;;3.00;1.00;;;;;;4456095;27;655794;-70
2024/03/18 10:47:12;;;;;;;16.07;8.53;;;2.40;1.00;;;;;;4479756;27;656077;-71
2024/03/18 10:49:59;;;;;;;16.53;8.30;;;1.80;1.00;;;;;;4455046;27;656283;-71
2024/03/18 10:52:47;;;;;;;16.70;7.97;;;2.30;22.50;;;;;;4478497;27;656226;-71
2024/03/18 10:55:34;;;;;;;16.60;8.87;;;2.70;1.00;;;;;;4448589;27;656868;-70
2024/03/18 10:58:22;;;;;;;17.00;7.90;;;3.00;1.00;;;;;;4469138;27;655630;-70
2024/03/18 11:01:10;;;;;;;14.57;7.63;;;2.30;1.00;;;;;;4455080;27;656115;-70
2024/03/18 11:03:58;;;;;;;11.63;6.83;;;2.50;1.00;;;;;;4477844;27;654975;-69
2024/03/18 11:06:47;;;;;;;13.87;7.00;;;2.30;1.00;;;;;;4450117;27;656451;-70
2024/03/18 11:09:38;;;;;;;10.73;5.93;;;2.60;1.00;;;;;;4445762;27;655266;-70
2024/03/18 11:12:32;;;;;;;11.67;5.70;;;2.50;1.00;;;;;;4455774;27;656240;-69
2024/03/18 11:15:20;;;;;;;7.90;4.97;;;2.40;1.00;;;;;;4444780;27;655834;-69
2024/03/18 11:18:08;;;;;;;7.47;4.33;;;2.60;1.00;;;;;;4486154;27;655040;-69
2024/03/18 11:20:59;;;;;;;7.83;3.93;;;3.10;1.00;;;;;;4454165;27;655259;-69
2024/03/18 11:23:57;;;;;;;7.90;4.57;;;2.50;1.00;;;;;;4451314;27;654689;-69
2024/03/18 11:26:44;;;;;;;10.57;5.47;;;2.30;1.00;;;;;;4431048;27;655096;-69
2024/03/18 11:29:36;;;;;;;3.43;2.00;;;2.80;1.00;;;;;;4478480;27;655873;-69
2024/03/18 11:32:23;;;;;;;9.77;5.43;;;2.70;1.00;;;;;;4453047;27;654379;-69
2024/03/18 11:35:10;;;;;;;17.83;6.60;;;2.30;1.00;;;;;;4479037;27;654382;-69
2024/03/18 11:37:59;;;;;;;13.97;4.13;;;2.10;1.00;;;;;;4456696;27;655646;-69
2024/03/18 11:40:47;;;;;;;11.40;6.03;;;2.50;1.00;;;;;;4479029;27;655223;-69
2024/03/18 11:43:35;;;;;;;14.00;7.07;;;2.60;1.00;;;;;;4453083;27;656555;-69
2024/03/18 11:46:22;;;;;;;17.83;7.30;;;2.70;1.00;;;;;;4451470;27;656008;-70
2024/03/18 11:49:11;;;;;;;11.77;7.10;;;3.30;1.00;;;;;;4480818;27;655533;-69
2024/03/18 11:51:58;;;;;;;14.97;7.97;;;3.40;1.00;;;;;;4450454;27;655518;-69
2024/03/18 11:54:47;;;;;;;16.10;8.93;;;3.70;1.00;;;;;;4479872;27;655728;-69
2024/03/18 11:57:34;;;;;;;45.50;14.87;;;3.70;1.00;;;;;;4455562;27;655711;-69
2024/03/18 12:00:21;;;;;;;27.07;12.70;;;3.60;1.00;;;;;;4477625;27;657189;-69
2024/03/18 12:03:10;;;;;;;14.70;5.17;;;3.50;1.00;;;;;;4459234;27;656805;-69
2024/03/18 12:05:57;;;;;;;18.07;8.67;;;3.30;1.00;;;;;;4469746;27;655649;-69
2024/03/18 12:08:45;;;;;;;15.90;8.60;;;2.80;1.00;;;;;;4474990;27;655860;-69
2024/03/18 12:11:33;;;;;;;19.40;8.73;;;2.40;1.00;;;;;;4478044;27;656008;-68
2024/03/18 12:14:20;;;;;;;16.63;8.23;;;2.70;1.00;;;;;;4456886;27;655839;-69
2024/03/18 12:17:08;;;;;;;14.77;7.60;;;3.00;1.00;;;;;;4455216;27;655550;-69
2024/03/18 12:19:59;;;;;;;13.60;7.07;;;3.00;1.00;;;;;;4469854;27;655915;-70
2024/03/18 12:22:47;;;;;;;15.00;7.47;;;3.00;1.00;;;;;;4448886;27;655983;-70
2024/03/18 12:28:44;;;;;;;12.47;6.47;;;3.20;1.00;;;;;;4448673;27;655381;-69
2024/03/18 12:31:33;;;;;;;8.70;2.10;;;3.10;1.00;;;;;;4449786;27;655152;-69
2024/03/18 12:34:20;;;;;;;13.05;5.80;;;3.00;1.00;;;;;;4452597;27;654930;-69
2024/03/18 12:37:09;;;;;;;4.73;3.13;;;2.80;1.00;;;;;;4463936;27;655265;-69
2024/03/18 12:39:56;;;;;;;8.50;4.67;;;2.50;1.00;;;;;;4474752;27;655521;-69
2024/03/18 12:42:43;;;;;;;11.57;5.33;;;2.60;1.00;;;;;;4449538;27;654506;-69
2024/03/18 12:45:32;;;;;;;10.97;5.00;;;2.80;1.00;;;;;;4471876;27;655898;-69
2024/03/18 12:48:20;;;;;;;6.60;3.97;;;2.60;1.00;;;;;;4445000;27;655598;-69
2024/03/18 12:51:08;;;;;;;6.87;4.23;;;2.80;1.00;;;;;;4454931;27;654703;-69
2024/03/18 12:53:56;;;;;;;5.90;3.73;;;2.60;1.00;;;;;;4475828;27;655338;-69
2024/03/18 12:56:43;;;;;;;7.50;4.23;;;2.80;1.00;;;;;;4457617;27;654735;-69
2024/03/18 12:59:32;;;;;;;6.97;3.50;;;3.20;1.00;;;;;;4475324;27;655383;-69
2024/03/18 13:02:20;;;;;;;9.70;3.90;;;3.30;1.00;;;;;;4446132;27;655973;-69
2024/03/18 13:05:08;;;;;;;6.40;3.92;;;3.60;1.00;;;;;;4449513;27;654820;-69
2024/03/18 13:07:56;;;;;;;9.23;4.07;;;3.70;1.00;;;;;;4471471;27;655657;-68
2024/03/18 13:10:43;;;;;;;8.10;4.77;;;3.50;1.00;;;;;;4450924;28;654667;-68
2024/03/18 13:13:30;;;;;;;9.03;4.17;;;3.60;1.00;;;;;;4476649;27;655129;-68
2024/03/18 13:16:18;;;;;;;7.23;4.20;;;3.40;1.00;;;;;;4461497;27;654980;-69
2024/03/18 13:19:07;;;;;;;7.63;4.33;;;3.00;1.00;;;;;;4469205;27;655587;-69
2024/03/18 13:21:54;;;;;;;9.90;4.93;;;3.10;1.00;;;;;;4453722;27;655250;-68
2024/03/18 13:24:42;;;;;;;8.70;4.63;;;2.90;1.00;;;;;;4476334;28;654660;-69
2024/03/18 13:27:29;;;;;;;8.73;5.10;;;2.80;1.00;;;;;;4444444;28;654650;-68
2024/03/18 13:30:16;;;;;;;10.23;5.33;;;2.80;1.00;;;;;;4478032;28;654594;-68
2024/03/18 13:33:04;;;;;;;12.40;5.10;;;3.00;1.00;;;;;;4451330;28;655430;-68
2024/03/18 13:35:54;;;;;;;13.43;6.00;;;3.20;1.00;;;;;;4473971;27;655842;-68
2024/03/18 13:38:41;;;;;;;18.90;6.13;;;2.80;1.00;;;;;;4452994;28;655917;-68
2024/03/18 13:41:28;;;;;;;7.38;3.10;;;2.80;1.00;;;;;;4459242;27;655972;-68
2024/03/18 13:44:16;;;;;;;12.50;6.03;;;2.90;1.00;;;;;;4469628;28;654822;-68
2024/03/18 13:47:03;;;;;;;11.43;5.03;;;2.90;1.00;;;;;;4455155;28;656431;-68
2024/03/18 13:49:50;;;;;;;13.07;5.70;;;3.00;1.00;;;;;;4476854;28;655772;-67
2024/03/18 13:52:39;;;;;;;14.40;6.67;;;3.20;1.00;;;;;;4455583;28;655821;-69
2024/03/18 13:55:27;;;;;;;9.30;3.40;;;3.00;1.00;;;;;;4467328;28;655686;-68
2024/03/18 13:58:15;;;;;;;12.60;6.37;;;3.60;1.00;;;;;;4457513;28;654717;-69
2024/03/18 14:01:03;;;;;;;13.93;6.50;;;4.50;1.00;;;;;;4458995;27;655568;-69
2024/03/18 14:03:51;;;;;;;4.27;2.53;;;4.90;99.90;;;;;;4465918;28;656186;-68
2024/03/18 14:06:38;;;;;;;14.33;6.43;;;4.70;99.90;;;;;;4450141;28;655734;-70
2024/03/18 14:09:28;;;;;;;22.53;7.40;;;5.40;1.00;;;;;;4479065;27;657115;-69
2024/03/18 14:12:16;;;;;;;14.03;6.30;;;5.70;99.90;;;;;;4445564;27;655967;-69
2024/03/18 14:15:05;;;;;;;14.50;5.50;;;5.30;1.00;;;;;;4462952;27;656267;-69
2024/03/18 14:17:52;;;;;;;11.43;6.07;;;4.20;1.00;;;;;;4446365;27;655515;-69
2024/03/18 14:20:40;;;;;;;12.40;6.40;;;4.10;1.00;;;;;;4479509;27;656635;-68
2024/03/18 14:23:28;;;;;;;12.07;5.83;;;3.50;1.00;;;;;;4453666;27;656032;-69
2024/03/18 14:26:17;;;;;;;11.73;5.30;;;3.50;1.00;;;;;;4482305;27;656059;-68
2024/03/18 14:29:04;;;;;;;9.27;4.87;;;3.40;1.00;;;;;;4458408;27;655734;-68
2024/03/18 14:31:51;;;;;;;15.00;6.60;;;3.20;1.00;;;;;;4481432;27;653978;-67
2024/03/18 14:34:39;;;;;;;13.00;6.30;;;3.10;1.00;;;;;;4444958;27;655577;-68
2024/03/18 14:37:26;;;;;;;13.97;6.37;;;3.30;1.00;;;;;;4477409;27;656442;-68